sensor_id;sensor_type;location;lat;lon;timestamp;temperature;humidity
4635;DHT22;2330;48.158;11.816;2022-08-19T00:01:34;18.90;98.50
4635;DHT22;2330;48.158;11.816;2022-08-19T00:04:07;18.80;98.50
4635;DHT22;2330;48.158;11.816;2022-08-19T00:06:35;18.70;98.50
4635;DHT22;2330;48.158;11.816;2022-08-19T00:09:05;18.60;98.50
4635;DHT22;2330;48.158;11.816;2022-08-19T00:11:32;18.60;98.50
4635;DHT22;2330;48.158;11.816;2022-08-19T00:13:59;18.50;98.50
4635;DHT22;2330;48.158;11.816;2022-08-19T00:16:26;18.50;98.50
4635;DHT22;2330;48.158;11.816;2022-08-19T00:18:54;18.50;98.50
4635;DHT22;2330;48.158;11.816;2022-08-19T00:21:23;18.50;98.50
4635;DHT22;2330;48.158;11.816;2022-08-19T00:23:51;18.50;98.50
4635;DHT22;2330;48.158;11.816;2022-08-19T00:26:18;18.50;98.50
4635;DHT22;2330;48.158;11.816;2022-08-19T00:28:45;18.50;98.50
4635;DHT22;2330;48.158;11.816;2022-08-19T00:31:13;18.40;98.50
4635;DHT22;2330;48.158;11.816;2022-08-19T00:33:39;18.40;98.50
4635;DHT22;2330;48.158;11.816;2022-08-19T00:36:08;18.50;98.50
4635;DHT22;2330;48.158;11.816;2022-08-19T00:38:37;18.40;98.50
4635;DHT22;2330;48.158;11.816;2022-08-19T00:41:05;18.40;98.50
4635;DHT22;2330;48.158;11.816;2022-08-19T00:43:32;18.50;98.50
4635;DHT22;2330;48.158;11.816;2022-08-19T00:45:59;18.50;98.50
4635;DHT22;2330;48.158;11.816;2022-08-19T00:48:26;18.50;98.50
4635;DHT22;2330;48.158;11.816;2022-08-19T00:50:53;18.60;98.50
4635;DHT22;2330;48.158;11.816;2022-08-19T00:53:24;18.60;98.50
4635;DHT22;2330;48.158;11.816;2022-08-19T00:55:54;18.60;98.50
4635;DHT22;2330;48.158;11.816;2022-08-19T00:58:31;18.60;98.50
4635;DHT22;2330;48.158;11.816;2022-08-19T01:00:59;18.60;98.50
4635;DHT22;2330;48.158;11.816;2022-08-19T01:03:27;18.70;98.50
4635;DHT22;2330;48.158;11.816;2022-08-19T01:06:14;18.60;98.50
4635;DHT22;2330;48.158;11.816;2022-08-19T01:08:45;18.60;98.50
4635;DHT22;2330;48.158;11.816;2022-08-19T01:11:15;18.70;98.50
4635;DHT22;2330;48.158;11.816;2022-08-19T01:13:44;18.70;98.50
4635;DHT22;2330;48.158;11.816;2022-08-19T01:16:17;18.70;98.50
4635;DHT22;2330;48.158;11.816;2022-08-19T01:18:45;18.60;98.50
4635;DHT22;2330;48.158;11.816;2022-08-19T01:21:22;18.70;98.50
4635;DHT22;2330;48.158;11.816;2022-08-19T01:23:51;18.70;98.50
4635;DHT22;2330;48.158;11.816;2022-08-19T01:26:21;18.70;98.50
4635;DHT22;2330;48.158;11.816;2022-08-19T01:28:51;18.70;98.50
4635;DHT22;2330;48.158;11.816;2022-08-19T01:31:22;18.70;98.50
4635;DHT22;2330;48.158;11.816;2022-08-19T01:33:54;18.70;98.50
4635;DHT22;2330;48.158;11.816;2022-08-19T01:36:35;18.70;98.50
4635;DHT22;2330;48.158;11.816;2022-08-19T01:39:07;18.70;98.50
4635;DHT22;2330;48.158;11.816;2022-08-19T01:41:34;18.60;98.50
4635;DHT22;2330;48.158;11.816;2022-08-19T01:44:01;18.60;98.50
4635;DHT22;2330;48.158;11.816;2022-08-19T01:46:46;18.60;98.50
4635;DHT22;2330;48.158;11.816;2022-08-19T01:49:14;18.70;98.50
4635;DHT22;2330;48.158;11.816;2022-08-19T01:51:41;18.70;98.50
4635;DHT22;2330;48.158;11.816;2022-08-19T01:54:10;18.80;98.50
4635;DHT22;2330;48.158;11.816;2022-08-19T01:56:38;18.70;98.50
4635;DHT22;2330;48.158;11.816;2022-08-19T01:59:10;18.70;98.50
4635;DHT22;2330;48.158;11.816;2022-08-19T02:01:37;18.70;98.50
4635;DHT22;2330;48.158;11.816;2022-08-19T02:04:04;18.80;98.50
4635;DHT22;2330;48.158;11.816;2022-08-19T02:06:32;18.80;98.50
4635;DHT22;2330;48.158;11.816;2022-08-19T02:08:59;18.80;98.50
4635;DHT22;2330;48.158;11.816;2022-08-19T02:11:29;18.80;98.50
4635;DHT22;2330;48.158;11.816;2022-08-19T02:13:58;18.80;98.50
4635;DHT22;2330;48.158;11.816;2022-08-19T02:16:25;18.80;98.50
4635;DHT22;2330;48.158;11.816;2022-08-19T02:18:52;18.70;98.50
4635;DHT22;2330;48.158;11.816;2022-08-19T02:21:20;18.70;98.50
4635;DHT22;2330;48.158;11.816;2022-08-19T02:23:48;18.70;98.50
4635;DHT22;2330;48.158;11.816;2022-08-19T02:26:15;18.70;98.50
4635;DHT22;2330;48.158;11.816;2022-08-19T02:28:43;18.70;98.50
4635;DHT22;2330;48.158;11.816;2022-08-19T02:31:11;18.60;98.50
4635;DHT22;2330;48.158;11.816;2022-08-19T02:33:38;18.70;98.50
4635;DHT22;2330;48.158;11.816;2022-08-19T02:36:06;18.70;98.50
4635;DHT22;2330;48.158;11.816;2022-08-19T02:38:34;18.60;98.50
4635;DHT22;2330;48.158;11.816;2022-08-19T02:41:04;18.60;98.50
4635;DHT22;2330;48.158;11.816;2022-08-19T02:43:32;18.60;98.50
4635;DHT22;2330;48.158;11.816;2022-08-19T02:46:00;18.60;98.50
4635;DHT22;2330;48.158;11.816;2022-08-19T02:48:27;18.60;98.50
4635;DHT22;2330;48.158;11.816;2022-08-19T02:50:54;18.70;98.50
4635;DHT22;2330;48.158;11.816;2022-08-19T02:53:26;18.60;98.50
4635;DHT22;2330;48.158;11.816;2022-08-19T02:55:53;18.60;98.50
4635;DHT22;2330;48.158;11.816;2022-08-19T02:58:21;18.60;98.50
4635;DHT22;2330;48.158;11.816;2022-08-19T03:00:53;18.60;98.50
4635;DHT22;2330;48.158;11.816;2022-08-19T03:03:20;18.70;98.50
4635;DHT22;2330;48.158;11.816;2022-08-19T03:05:46;18.60;98.50
4635;DHT22;2330;48.158;11.816;2022-08-19T03:08:23;18.60;98.50
4635;DHT22;2330;48.158;11.816;2022-08-19T03:10:50;18.60;98.50
4635;DHT22;2330;48.158;11.816;2022-08-19T03:13:18;18.60;98.50
4635;DHT22;2330;48.158;11.816;2022-08-19T03:15:46;18.60;98.50
4635;DHT22;2330;48.158;11.816;2022-08-19T03:18:14;18.60;98.50
4635;DHT22;2330;48.158;11.816;2022-08-19T03:20:49;18.60;98.50
4635;DHT22;2330;48.158;11.816;2022-08-19T03:23:16;18.60;98.50
4635;DHT22;2330;48.158;11.816;2022-08-19T03:25:45;18.70;98.50
4635;DHT22;2330;48.158;11.816;2022-08-19T03:28:24;18.70;98.50
4635;DHT22;2330;48.158;11.816;2022-08-19T03:31:14;18.70;98.50
4635;DHT22;2330;48.158;11.816;2022-08-19T03:34:01;18.70;98.50
4635;DHT22;2330;48.158;11.816;2022-08-19T03:36:29;18.70;98.50
4635;DHT22;2330;48.158;11.816;2022-08-19T03:38:58;18.60;98.50
4635;DHT22;2330;48.158;11.816;2022-08-19T03:41:31;18.60;98.50
4635;DHT22;2330;48.158;11.816;2022-08-19T03:44:12;18.70;98.50
4635;DHT22;2330;48.158;11.816;2022-08-19T03:46:49;18.70;98.50
4635;DHT22;2330;48.158;11.816;2022-08-19T03:49:17;18.70;98.50
4635;DHT22;2330;48.158;11.816;2022-08-19T03:51:46;18.80;98.50
4635;DHT22;2330;48.158;11.816;2022-08-19T03:54:15;18.80;98.50
4635;DHT22;2330;48.158;11.816;2022-08-19T03:56:44;18.90;98.50
4635;DHT22;2330;48.158;11.816;2022-08-19T03:59:15;18.90;98.50
4635;DHT22;2330;48.158;11.816;2022-08-19T04:01:42;18.90;98.50
4635;DHT22;2330;48.158;11.816;2022-08-19T04:04:09;18.80;98.50
4635;DHT22;2330;48.158;11.816;2022-08-19T04:06:38;18.90;98.50
4635;DHT22;2330;48.158;11.816;2022-08-19T04:09:08;18.90;98.50
4635;DHT22;2330;48.158;11.816;2022-08-19T04:11:40;19.00;98.50
4635;DHT22;2330;48.158;11.816;2022-08-19T04:14:11;18.90;98.50
4635;DHT22;2330;48.158;11.816;2022-08-19T04:16:39;18.90;98.50
4635;DHT22;2330;48.158;11.816;2022-08-19T04:19:06;18.90;98.50
4635;DHT22;2330;48.158;11.816;2022-08-19T04:21:34;18.90;98.50
4635;DHT22;2330;48.158;11.816;2022-08-19T04:24:01;18.90;98.50
4635;DHT22;2330;48.158;11.816;2022-08-19T04:26:35;18.90;98.50
4635;DHT22;2330;48.158;11.816;2022-08-19T04:29:06;18.90;98.50
4635;DHT22;2330;48.158;11.816;2022-08-19T04:31:38;18.90;98.50
4635;DHT22;2330;48.158;11.816;2022-08-19T04:34:07;18.90;98.50
4635;DHT22;2330;48.158;11.816;2022-08-19T04:36:38;19.00;98.50
4635;DHT22;2330;48.158;11.816;2022-08-19T04:39:09;19.00;98.50
4635;DHT22;2330;48.158;11.816;2022-08-19T04:41:36;19.00;98.50
4635;DHT22;2330;48.158;11.816;2022-08-19T04:44:22;19.00;98.50
4635;DHT22;2330;48.158;11.816;2022-08-19T04:46:50;19.00;98.50
4635;DHT22;2330;48.158;11.816;2022-08-19T04:49:20;19.00;98.50
4635;DHT22;2330;48.158;11.816;2022-08-19T04:51:51;19.00;98.50
4635;DHT22;2330;48.158;11.816;2022-08-19T04:54:22;19.10;98.50
4635;DHT22;2330;48.158;11.816;2022-08-19T04:57:06;19.00;98.50
4635;DHT22;2330;48.158;11.816;2022-08-19T04:59:34;19.00;98.50
4635;DHT22;2330;48.158;11.816;2022-08-19T05:02:01;18.90;98.50
4635;DHT22;2330;48.158;11.816;2022-08-19T05:04:28;18.90;98.50
4635;DHT22;2330;48.158;11.816;2022-08-19T05:06:57;18.90;98.50
4635;DHT22;2330;48.158;11.816;2022-08-19T05:09:27;19.00;98.50
4635;DHT22;2330;48.158;11.816;2022-08-19T05:12:14;19.00;98.50
4635;DHT22;2330;48.158;11.816;2022-08-19T05:14:42;19.00;98.50
4635;DHT22;2330;48.158;11.816;2022-08-19T05:17:09;19.00;98.50
4635;DHT22;2330;48.158;11.816;2022-08-19T05:19:53;18.90;98.50
4635;DHT22;2330;48.158;11.816;2022-08-19T05:22:39;18.80;98.50
4635;DHT22;2330;48.158;11.816;2022-08-19T05:25:12;18.70;98.50
4635;DHT22;2330;48.158;11.816;2022-08-19T05:27:41;18.80;98.50
4635;DHT22;2330;48.158;11.816;2022-08-19T05:30:09;18.90;98.50
4635;DHT22;2330;48.158;11.816;2022-08-19T05:32:36;18.90;98.50
4635;DHT22;2330;48.158;11.816;2022-08-19T05:35:04;18.90;98.50
4635;DHT22;2330;48.158;11.816;2022-08-19T05:37:31;18.90;98.50
4635;DHT22;2330;48.158;11.816;2022-08-19T05:39:57;18.80;98.50
4635;DHT22;2330;48.158;11.816;2022-08-19T05:42:24;18.80;98.50
4635;DHT22;2330;48.158;11.816;2022-08-19T05:44:53;18.80;98.50
4635;DHT22;2330;48.158;11.816;2022-08-19T05:47:20;18.70;98.50
4635;DHT22;2330;48.158;11.816;2022-08-19T05:49:48;18.70;98.50
4635;DHT22;2330;48.158;11.816;2022-08-19T05:52:17;18.70;98.50
4635;DHT22;2330;48.158;11.816;2022-08-19T05:54:45;18.70;98.50
4635;DHT22;2330;48.158;11.816;2022-08-19T05:57:18;18.70;98.50
4635;DHT22;2330;48.158;11.816;2022-08-19T05:59:45;18.70;98.50
4635;DHT22;2330;48.158;11.816;2022-08-19T06:02:27;18.80;98.50
4635;DHT22;2330;48.158;11.816;2022-08-19T06:04:53;18.80;98.50
4635;DHT22;2330;48.158;11.816;2022-08-19T06:07:20;18.90;98.50
4635;DHT22;2330;48.158;11.816;2022-08-19T06:09:47;19.10;98.50
4635;DHT22;2330;48.158;11.816;2022-08-19T06:12:25;19.20;98.50
4635;DHT22;2330;48.158;11.816;2022-08-19T06:14:55;19.20;98.50
4635;DHT22;2330;48.158;11.816;2022-08-19T06:17:28;19.20;98.50
4635;DHT22;2330;48.158;11.816;2022-08-19T06:19:57;19.10;98.50
4635;DHT22;2330;48.158;11.816;2022-08-19T06:22:26;19.00;98.50
4635;DHT22;2330;48.158;11.816;2022-08-19T06:24:53;18.90;98.50
4635;DHT22;2330;48.158;11.816;2022-08-19T06:27:21;18.90;98.50
4635;DHT22;2330;48.158;11.816;2022-08-19T06:29:48;18.80;98.50
4635;DHT22;2330;48.158;11.816;2022-08-19T06:32:17;18.80;98.50
4635;DHT22;2330;48.158;11.816;2022-08-19T06:34:45;18.80;98.50
4635;DHT22;2330;48.158;11.816;2022-08-19T06:37:13;18.80;98.50
4635;DHT22;2330;48.158;11.816;2022-08-19T06:39:43;18.90;98.50
4635;DHT22;2330;48.158;11.816;2022-08-19T06:42:11;19.00;98.50
4635;DHT22;2330;48.158;11.816;2022-08-19T06:44:41;19.10;98.50
4635;DHT22;2330;48.158;11.816;2022-08-19T06:47:16;19.20;98.50
4635;DHT22;2330;48.158;11.816;2022-08-19T06:49:55;19.30;98.50
4635;DHT22;2330;48.158;11.816;2022-08-19T06:52:35;19.30;98.50
4635;DHT22;2330;48.158;11.816;2022-08-19T06:55:04;19.10;98.50
4635;DHT22;2330;48.158;11.816;2022-08-19T06:57:32;19.00;98.50
4635;DHT22;2330;48.158;11.816;2022-08-19T06:59:59;19.00;98.50
4635;DHT22;2330;48.158;11.816;2022-08-19T07:02:29;19.00;98.50
4635;DHT22;2330;48.158;11.816;2022-08-19T07:04:56;19.00;98.50
4635;DHT22;2330;48.158;11.816;2022-08-19T07:07:24;19.00;98.50
4635;DHT22;2330;48.158;11.816;2022-08-19T07:09:51;19.10;98.50
4635;DHT22;2330;48.158;11.816;2022-08-19T07:12:28;19.20;98.50
4635;DHT22;2330;48.158;11.816;2022-08-19T07:14:57;19.20;98.50
4635;DHT22;2330;48.158;11.816;2022-08-19T07:17:25;19.30;98.50
4635;DHT22;2330;48.158;11.816;2022-08-19T07:19:52;19.40;98.50
4635;DHT22;2330;48.158;11.816;2022-08-19T07:22:20;19.60;98.50
4635;DHT22;2330;48.158;11.816;2022-08-19T07:24:50;19.80;98.50
4635;DHT22;2330;48.158;11.816;2022-08-19T07:27:18;20.00;98.50
4635;DHT22;2330;48.158;11.816;2022-08-19T07:29:51;20.10;98.50
4635;DHT22;2330;48.158;11.816;2022-08-19T07:32:24;20.50;98.50
4635;DHT22;2330;48.158;11.816;2022-08-19T07:34:54;20.60;98.50
4635;DHT22;2330;48.158;11.816;2022-08-19T07:37:23;20.70;98.50
4635;DHT22;2330;48.158;11.816;2022-08-19T07:39:56;20.80;98.50
4635;DHT22;2330;48.158;11.816;2022-08-19T07:42:23;20.80;98.50
4635;DHT22;2330;48.158;11.816;2022-08-19T07:44:49;20.90;98.50
4635;DHT22;2330;48.158;11.816;2022-08-19T07:47:17;20.80;98.50
4635;DHT22;2330;48.158;11.816;2022-08-19T07:50:07;20.80;98.50
4635;DHT22;2330;48.158;11.816;2022-08-19T07:52:34;20.80;98.50
4635;DHT22;2330;48.158;11.816;2022-08-19T07:55:05;20.80;98.50
4635;DHT22;2330;48.158;11.816;2022-08-19T07:57:52;20.80;98.50
4635;DHT22;2330;48.158;11.816;2022-08-19T08:00:20;20.70;98.50
4635;DHT22;2330;48.158;11.816;2022-08-19T08:02:50;20.70;98.50
4635;DHT22;2330;48.158;11.816;2022-08-19T08:05:21;20.60;98.50
4635;DHT22;2330;48.158;11.816;2022-08-19T08:08:10;20.50;98.50
4635;DHT22;2330;48.158;11.816;2022-08-19T08:10:56;20.50;98.50
4635;DHT22;2330;48.158;11.816;2022-08-19T08:13:24;20.50;98.50
4635;DHT22;2330;48.158;11.816;2022-08-19T08:15:52;20.30;98.50
4635;DHT22;2330;48.158;11.816;2022-08-19T08:18:21;20.20;98.50
4635;DHT22;2330;48.158;11.816;2022-08-19T08:20:54;20.00;98.50
4635;DHT22;2330;48.158;11.816;2022-08-19T08:23:21;19.90;98.50
4635;DHT22;2330;48.158;11.816;2022-08-19T08:25:56;19.90;98.50
4635;DHT22;2330;48.158;11.816;2022-08-19T08:28:24;19.80;98.50
4635;DHT22;2330;48.158;11.816;2022-08-19T08:30:55;19.80;98.50
4635;DHT22;2330;48.158;11.816;2022-08-19T08:33:25;19.80;98.50
4635;DHT22;2330;48.158;11.816;2022-08-19T08:36:00;19.80;98.50
4635;DHT22;2330;48.158;11.816;2022-08-19T08:38:31;19.70;98.50
4635;DHT22;2330;48.158;11.816;2022-08-19T08:43:48;19.40;98.50
4635;DHT22;2330;48.158;11.816;2022-08-19T08:46:22;19.40;98.50
4635;DHT22;2330;48.158;11.816;2022-08-19T08:51:34;19.20;98.50
4635;DHT22;2330;48.158;11.816;2022-08-19T08:54:04;19.00;98.50
4635;DHT22;2330;48.158;11.816;2022-08-19T08:56:38;19.00;98.50
4635;DHT22;2330;48.158;11.816;2022-08-19T08:59:24;19.00;98.50
4635;DHT22;2330;48.158;11.816;2022-08-19T09:01:52;19.00;98.50
4635;DHT22;2330;48.158;11.816;2022-08-19T09:04:19;18.90;98.50
4635;DHT22;2330;48.158;11.816;2022-08-19T09:06:56;18.80;98.50
4635;DHT22;2330;48.158;11.816;2022-08-19T09:09:48;18.80;98.50
4635;DHT22;2330;48.158;11.816;2022-08-19T09:15:04;18.80;98.50
4635;DHT22;2330;48.158;11.816;2022-08-19T09:17:32;18.80;98.50
4635;DHT22;2330;48.158;11.816;2022-08-19T09:20:20;18.90;98.50
4635;DHT22;2330;48.158;11.816;2022-08-19T09:22:48;19.00;98.50
4635;DHT22;2330;48.158;11.816;2022-08-19T09:25:18;19.00;98.50
4635;DHT22;2330;48.158;11.816;2022-08-19T09:27:53;19.20;98.50
4635;DHT22;2330;48.158;11.816;2022-08-19T09:30:31;19.20;98.50
4635;DHT22;2330;48.158;11.816;2022-08-19T09:32:58;19.40;98.50
4635;DHT22;2330;48.158;11.816;2022-08-19T09:35:27;19.50;98.50
4635;DHT22;2330;48.158;11.816;2022-08-19T09:37:56;19.70;98.50
4635;DHT22;2330;48.158;11.816;2022-08-19T09:40:27;19.70;98.50
4635;DHT22;2330;48.158;11.816;2022-08-19T09:42:56;19.70;98.50
4635;DHT22;2330;48.158;11.816;2022-08-19T09:45:23;19.80;98.50
4635;DHT22;2330;48.158;11.816;2022-08-19T09:47:51;19.90;98.50
4635;DHT22;2330;48.158;11.816;2022-08-19T09:50:21;20.00;98.50
4635;DHT22;2330;48.158;11.816;2022-08-19T09:52:48;20.20;98.50
4635;DHT22;2330;48.158;11.816;2022-08-19T09:55:24;20.40;98.50
4635;DHT22;2330;48.158;11.816;2022-08-19T09:57:58;20.50;98.50
4635;DHT22;2330;48.158;11.816;2022-08-19T10:00:25;20.60;98.50
4635;DHT22;2330;48.158;11.816;2022-08-19T10:02:53;20.60;98.50
4635;DHT22;2330;48.158;11.816;2022-08-19T10:05:19;20.80;98.50
4635;DHT22;2330;48.158;11.816;2022-08-19T10:08:08;20.60;98.50
4635;DHT22;2330;48.158;11.816;2022-08-19T10:10:41;20.60;98.50
4635;DHT22;2330;48.158;11.816;2022-08-19T10:13:14;20.50;98.50
4635;DHT22;2330;48.158;11.816;2022-08-19T10:15:41;20.60;98.50
4635;DHT22;2330;48.158;11.816;2022-08-19T10:18:14;20.70;98.50
4635;DHT22;2330;48.158;11.816;2022-08-19T10:20:44;20.60;98.50
4635;DHT22;2330;48.158;11.816;2022-08-19T10:23:18;20.80;98.50
4635;DHT22;2330;48.158;11.816;2022-08-19T10:25:47;21.10;98.50
4635;DHT22;2330;48.158;11.816;2022-08-19T10:28:14;21.40;98.50
4635;DHT22;2330;48.158;11.816;2022-08-19T10:30:41;21.50;98.50
4635;DHT22;2330;48.158;11.816;2022-08-19T10:33:09;21.60;98.50
4635;DHT22;2330;48.158;11.816;2022-08-19T10:35:37;21.60;98.50
4635;DHT22;2330;48.158;11.816;2022-08-19T10:38:22;21.90;98.50
4635;DHT22;2330;48.158;11.816;2022-08-19T10:40:58;22.10;98.50
4635;DHT22;2330;48.158;11.816;2022-08-19T10:43:25;22.30;98.50
4635;DHT22;2330;48.158;11.816;2022-08-19T10:45:53;22.30;98.50
4635;DHT22;2330;48.158;11.816;2022-08-19T10:48:22;21.90;98.50
4635;DHT22;2330;48.158;11.816;2022-08-19T10:50:49;21.60;98.50
4635;DHT22;2330;48.158;11.816;2022-08-19T10:53:35;21.70;98.50
4635;DHT22;2330;48.158;11.816;2022-08-19T10:56:02;21.80;98.50
4635;DHT22;2330;48.158;11.816;2022-08-19T10:58:50;22.00;98.50
4635;DHT22;2330;48.158;11.816;2022-08-19T11:01:18;21.90;98.50
4635;DHT22;2330;48.158;11.816;2022-08-19T11:03:45;22.10;98.50
4635;DHT22;2330;48.158;11.816;2022-08-19T11:06:12;22.40;98.50
4635;DHT22;2330;48.158;11.816;2022-08-19T11:08:38;22.60;98.50
4635;DHT22;2330;48.158;11.816;2022-08-19T11:11:06;22.80;98.50
4635;DHT22;2330;48.158;11.816;2022-08-19T11:13:36;22.70;98.50
4635;DHT22;2330;48.158;11.816;2022-08-19T11:16:07;22.80;98.50
4635;DHT22;2330;48.158;11.816;2022-08-19T11:18:36;23.10;98.50
4635;DHT22;2330;48.158;11.816;2022-08-19T11:21:31;23.60;98.50
4635;DHT22;2330;48.158;11.816;2022-08-19T11:24:01;24.00;98.50
4635;DHT22;2330;48.158;11.816;2022-08-19T11:26:30;23.90;98.50
4635;DHT22;2330;48.158;11.816;2022-08-19T11:28:58;23.80;98.50
4635;DHT22;2330;48.158;11.816;2022-08-19T11:31:35;23.60;98.50
4635;DHT22;2330;48.158;11.816;2022-08-19T11:34:04;23.70;98.50
4635;DHT22;2330;48.158;11.816;2022-08-19T11:36:33;23.70;98.50
4635;DHT22;2330;48.158;11.816;2022-08-19T11:39:01;23.60;98.50
4635;DHT22;2330;48.158;11.816;2022-08-19T11:41:28;23.50;98.50
4635;DHT22;2330;48.158;11.816;2022-08-19T11:43:55;23.50;98.50
4635;DHT22;2330;48.158;11.816;2022-08-19T11:46:25;23.90;98.50
4635;DHT22;2330;48.158;11.816;2022-08-19T11:48:53;24.30;98.50
4635;DHT22;2330;48.158;11.816;2022-08-19T11:51:23;24.30;98.50
4635;DHT22;2330;48.158;11.816;2022-08-19T11:53:55;24.60;98.50
4635;DHT22;2330;48.158;11.816;2022-08-19T11:56:23;24.80;97.80
4635;DHT22;2330;48.158;11.816;2022-08-19T11:58:50;24.60;97.70
4635;DHT22;2330;48.158;11.816;2022-08-19T12:01:21;24.50;98.20
4635;DHT22;2330;48.158;11.816;2022-08-19T12:03:49;24.50;98.30
4635;DHT22;2330;48.158;11.816;2022-08-19T12:06:23;24.40;98.10
4635;DHT22;2330;48.158;11.816;2022-08-19T12:09:02;24.10;98.50
4635;DHT22;2330;48.158;11.816;2022-08-19T12:11:29;23.90;98.50
4635;DHT22;2330;48.158;11.816;2022-08-19T12:14:00;23.80;98.50
4635;DHT22;2330;48.158;11.816;2022-08-19T12:16:29;23.60;98.50
4635;DHT22;2330;48.158;11.816;2022-08-19T12:18:58;23.60;98.50
4635;DHT22;2330;48.158;11.816;2022-08-19T12:21:31;23.50;98.50
4635;DHT22;2330;48.158;11.816;2022-08-19T12:24:00;23.60;98.50
4635;DHT22;2330;48.158;11.816;2022-08-19T12:26:28;23.40;98.50
4635;DHT22;2330;48.158;11.816;2022-08-19T12:28:56;23.30;98.50
4635;DHT22;2330;48.158;11.816;2022-08-19T12:31:22;23.10;98.50
4635;DHT22;2330;48.158;11.816;2022-08-19T12:33:49;23.00;98.50
4635;DHT22;2330;48.158;11.816;2022-08-19T12:36:16;22.90;98.50
4635;DHT22;2330;48.158;11.816;2022-08-19T12:38:45;22.70;98.50
4635;DHT22;2330;48.158;11.816;2022-08-19T12:41:14;22.40;98.50
4635;DHT22;2330;48.158;11.816;2022-08-19T12:43:41;22.30;98.50
4635;DHT22;2330;48.158;11.816;2022-08-19T12:46:09;22.40;98.50
4635;DHT22;2330;48.158;11.816;2022-08-19T12:48:37;22.20;98.50
4635;DHT22;2330;48.158;11.816;2022-08-19T12:51:08;22.20;98.50
4635;DHT22;2330;48.158;11.816;2022-08-19T12:53:36;22.20;98.50
4635;DHT22;2330;48.158;11.816;2022-08-19T12:56:06;22.00;98.50
4635;DHT22;2330;48.158;11.816;2022-08-19T12:58:38;22.00;98.50
4635;DHT22;2330;48.158;11.816;2022-08-19T13:01:11;22.00;98.50
4635;DHT22;2330;48.158;11.816;2022-08-19T13:03:38;22.10;98.50
4635;DHT22;2330;48.158;11.816;2022-08-19T13:06:06;22.30;98.50
4635;DHT22;2330;48.158;11.816;2022-08-19T13:08:33;22.60;98.50
4635;DHT22;2330;48.158;11.816;2022-08-19T13:11:12;22.80;98.50
4635;DHT22;2330;48.158;11.816;2022-08-19T13:13:40;22.80;98.50
4635;DHT22;2330;48.158;11.816;2022-08-19T13:16:10;22.70;98.50
4635;DHT22;2330;48.158;11.816;2022-08-19T13:18:38;22.80;98.50
4635;DHT22;2330;48.158;11.816;2022-08-19T13:21:06;23.30;98.50
4635;DHT22;2330;48.158;11.816;2022-08-19T13:23:34;23.80;98.50
4635;DHT22;2330;48.158;11.816;2022-08-19T13:26:04;23.80;98.50
4635;DHT22;2330;48.158;11.816;2022-08-19T13:28:32;23.70;98.50
4635;DHT22;2330;48.158;11.816;2022-08-19T13:31:19;23.60;98.50
4635;DHT22;2330;48.158;11.816;2022-08-19T13:34:06;23.60;98.50
4635;DHT22;2330;48.158;11.816;2022-08-19T13:36:34;24.20;97.90
4635;DHT22;2330;48.158;11.816;2022-08-19T13:39:02;24.50;97.50
4635;DHT22;2330;48.158;11.816;2022-08-19T13:41:29;24.40;96.10
4635;DHT22;2330;48.158;11.816;2022-08-19T13:43:57;24.30;96.50
4635;DHT22;2330;48.158;11.816;2022-08-19T13:46:23;24.60;94.50
4635;DHT22;2330;48.158;11.816;2022-08-19T13:48:50;25.20;96.00
4635;DHT22;2330;48.158;11.816;2022-08-19T13:51:17;25.70;95.30
4635;DHT22;2330;48.158;11.816;2022-08-19T13:53:44;25.80;93.20
4635;DHT22;2330;48.158;11.816;2022-08-19T13:56:17;25.60;92.80
4635;DHT22;2330;48.158;11.816;2022-08-19T13:58:51;25.70;93.40
4635;DHT22;2330;48.158;11.816;2022-08-19T14:01:20;25.70;92.40
4635;DHT22;2330;48.158;11.816;2022-08-19T14:03:50;25.70;92.20
4635;DHT22;2330;48.158;11.816;2022-08-19T14:06:17;25.40;94.00
4635;DHT22;2330;48.158;11.816;2022-08-19T14:08:45;25.00;95.70
4635;DHT22;2330;48.158;11.816;2022-08-19T14:11:12;24.60;95.80
4635;DHT22;2330;48.158;11.816;2022-08-19T14:13:39;23.90;96.90
4635;DHT22;2330;48.158;11.816;2022-08-19T14:16:11;23.60;98.50
4635;DHT22;2330;48.158;11.816;2022-08-19T14:18:38;23.40;98.50
4635;DHT22;2330;48.158;11.816;2022-08-19T14:21:06;23.60;98.50
4635;DHT22;2330;48.158;11.816;2022-08-19T14:23:34;23.60;98.50
4635;DHT22;2330;48.158;11.816;2022-08-19T14:26:08;23.50;98.50
4635;DHT22;2330;48.158;11.816;2022-08-19T14:28:37;23.30;98.50
4635;DHT22;2330;48.158;11.816;2022-08-19T14:31:03;23.10;98.50
4635;DHT22;2330;48.158;11.816;2022-08-19T14:33:30;23.00;98.50
4635;DHT22;2330;48.158;11.816;2022-08-19T14:35:58;22.90;98.50
4635;DHT22;2330;48.158;11.816;2022-08-19T14:38:26;22.80;98.50
4635;DHT22;2330;48.158;11.816;2022-08-19T14:41:26;22.90;98.50
4635;DHT22;2330;48.158;11.816;2022-08-19T14:43:54;22.70;98.50
4635;DHT22;2330;48.158;11.816;2022-08-19T14:46:23;22.80;98.50
4635;DHT22;2330;48.158;11.816;2022-08-19T14:48:54;22.70;98.50
4635;DHT22;2330;48.158;11.816;2022-08-19T14:51:23;22.60;98.50
4635;DHT22;2330;48.158;11.816;2022-08-19T14:53:50;22.70;98.50
4635;DHT22;2330;48.158;11.816;2022-08-19T14:56:20;22.90;98.50
4635;DHT22;2330;48.158;11.816;2022-08-19T14:58:48;23.10;98.50
4635;DHT22;2330;48.158;11.816;2022-08-19T15:01:19;23.40;98.50
4635;DHT22;2330;48.158;11.816;2022-08-19T15:03:47;23.70;98.50
4635;DHT22;2330;48.158;11.816;2022-08-19T15:06:15;23.70;98.50
4635;DHT22;2330;48.158;11.816;2022-08-19T15:08:42;23.30;98.50
4635;DHT22;2330;48.158;11.816;2022-08-19T15:11:13;23.30;98.50
4635;DHT22;2330;48.158;11.816;2022-08-19T15:13:41;23.20;98.50
4635;DHT22;2330;48.158;11.816;2022-08-19T15:16:09;23.40;98.50
4635;DHT22;2330;48.158;11.816;2022-08-19T15:18:44;23.70;98.50
4635;DHT22;2330;48.158;11.816;2022-08-19T15:21:13;23.90;98.50
4635;DHT22;2330;48.158;11.816;2022-08-19T15:23:40;23.90;98.30
4635;DHT22;2330;48.158;11.816;2022-08-19T15:26:11;23.80;98.40
4635;DHT22;2330;48.158;11.816;2022-08-19T15:28:42;23.90;98.20
4635;DHT22;2330;48.158;11.816;2022-08-19T15:31:08;24.00;97.80
4635;DHT22;2330;48.158;11.816;2022-08-19T15:33:50;24.10;97.40
4635;DHT22;2330;48.158;11.816;2022-08-19T15:36:17;24.20;96.80
4635;DHT22;2330;48.158;11.816;2022-08-19T15:38:45;24.20;96.30
4635;DHT22;2330;48.158;11.816;2022-08-19T15:41:23;23.80;96.60
4635;DHT22;2330;48.158;11.816;2022-08-19T15:46:24;23.80;97.00
4635;DHT22;2330;48.158;11.816;2022-08-19T15:48:52;24.00;96.90
4635;DHT22;2330;48.158;11.816;2022-08-19T15:51:26;23.60;96.50
4635;DHT22;2330;48.158;11.816;2022-08-19T15:53:54;23.30;97.50
4635;DHT22;2330;48.158;11.816;2022-08-19T15:56:21;23.10;98.30
4635;DHT22;2330;48.158;11.816;2022-08-19T15:58:52;22.90;98.50
4635;DHT22;2330;48.158;11.816;2022-08-19T16:01:38;22.70;98.50
4635;DHT22;2330;48.158;11.816;2022-08-19T16:04:23;22.70;98.50
4635;DHT22;2330;48.158;11.816;2022-08-19T16:07:09;22.90;98.50
4635;DHT22;2330;48.158;11.816;2022-08-19T16:09:35;22.80;98.50
4635;DHT22;2330;48.158;11.816;2022-08-19T16:12:03;22.70;98.50
4635;DHT22;2330;48.158;11.816;2022-08-19T16:14:33;22.60;98.50
4635;DHT22;2330;48.158;11.816;2022-08-19T16:17:01;22.70;98.50